Time;durP1;ratioP1;P1;durP2;ratioP2;P2;SDS_P1;SDS_P2;PMS_P1;PMS_P2;Temp;Humidity;BMP_temperature;BMP_pressure;BME280_temperature;BME280_humidity;BME280_pressure;Samples;Min_cycle;Max_cycle;Signal;HPM_P1;HPM_P2
2023/09/21 00:05:02;;;;;;;;;;;17.90;29.70;;;;;;12373362;28;19936;-86
2023/09/21 00:11:04;;;;;;;;;;;17.80;30.50;;;;;;12361813;28;19936;-86
2023/09/21 00:17:07;;;;;;;;;;;17.80;37.20;;;;;;12349568;28;19961;-85
2023/09/21 00:23:09;;;;;;;;;;;17.70;33.90;;;;;;12373800;28;19968;-85
2023/09/21 00:29:11;;;;;;;;;;;17.70;46.80;;;;;;12376730;28;19961;-86
2023/09/21 00:35:15;;;;;;;;;;;17.70;33.70;;;;;;12359888;28;20021;-86
2023/09/21 00:41:20;;;;;;;;;;;17.80;23.20;;;;;;12357276;28;19930;-85
2023/09/21 00:47:22;;;;;;;;;;;17.80;25.20;;;;;;12353838;28;19937;-86
2023/09/21 00:53:27;;;;;;;;;;;17.90;12.10;;;;;;12361038;28;20223;-86
2023/09/21 00:59:32;;;;;;;;;;;18.00;1.00;;;;;;12377522;28;20004;-87
2023/09/21 01:05:36;;;;;;;;;;;18.00;1.00;;;;;;12379897;28;20350;-85
2023/09/21 01:11:38;;;;;;;;;;;18.00;1.00;;;;;;12371953;28;19980;-86
2023/09/21 01:17:41;;;;;;;;;;;18.00;1.00;;;;;;12357175;28;19977;-86
2023/09/21 01:23:45;;;;;;;;;;;18.00;1.00;;;;;;12360268;28;20409;-84
2023/09/21 01:29:52;;;;;;;;;;;18.00;1.00;;;;;;12358740;28;19929;-86
2023/09/21 01:35:53;;;;;;;;;;;18.10;1.00;;;;;;12360064;28;19933;-85
2023/09/21 01:41:55;;;;;;;;;;;18.10;1.00;;;;;;12365322;28;19930;-85
2023/09/21 01:47:57;;;;;;;;;;;18.20;1.00;;;;;;12356725;28;19933;-86
2023/09/21 01:53:59;;;;;;;;;;;18.20;1.00;;;;;;12369628;28;19925;-85
2023/09/21 02:00:11;;;;;;;;;;;18.10;1.00;;;;;;12371686;28;20412;-86
2023/09/21 02:06:13;;;;;;;;;;;18.20;1.00;;;;;;12350917;28;19933;-86
2023/09/21 02:12:15;;;;;;;;;;;18.10;1.00;;;;;;12362175;28;19934;-85
2023/09/21 02:18:17;;;;;;;;;;;18.20;1.00;;;;;;12363737;28;19936;-86
2023/09/21 02:24:19;;;;;;;;;;;18.20;1.00;;;;;;12379410;28;19936;-85
2023/09/21 02:30:21;;;;;;;;;;;18.20;1.00;;;;;;12382202;28;19930;-85
2023/09/21 02:36:23;;;;;;;;;;;18.30;1.00;;;;;;12358104;28;20011;-86
2023/09/21 02:42:25;;;;;;;;;;;18.30;1.00;;;;;;12380058;28;20315;-85
2023/09/21 02:48:27;;;;;;;;;;;18.30;1.00;;;;;;12365046;28;19929;-86
2023/09/21 02:54:29;;;;;;;;;;;18.30;1.00;;;;;;12390065;28;19929;-85
2023/09/21 03:00:34;;;;;;;;;;;18.40;1.00;;;;;;12379027;28;19961;-86
2023/09/21 03:06:36;;;;;;;;;;;18.30;1.00;;;;;;12370949;28;19972;-86
2023/09/21 03:12:38;;;;;;;;;;;18.40;1.00;;;;;;12381509;28;19930;-85
2023/09/21 03:18:41;;;;;;;;;;;18.30;1.00;;;;;;12365696;28;19937;-86
2023/09/21 03:24:47;;;;;;;;;;;18.30;1.00;;;;;;12375231;28;20304;-85
2023/09/21 03:30:50;;;;;;;;;;;18.20;1.00;;;;;;12372105;28;20033;-85
2023/09/21 03:36:51;;;;;;;;;;;18.30;1.00;;;;;;12370198;28;19929;-86
2023/09/21 03:42:56;;;;;;;;;;;18.20;1.00;;;;;;12362735;28;19936;-85
2023/09/21 03:48:58;;;;;;;;;;;18.20;1.00;;;;;;12365484;28;20012;-82
2023/09/21 03:55:02;;;;;;;;;;;18.10;1.00;;;;;;12423471;28;19932;-83
2023/09/21 04:01:04;;;;;;;;;;;18.10;1.00;;;;;;12423661;28;20246;-84
2023/09/21 04:07:07;;;;;;;;;;;18.10;1.00;;;;;;12419839;28;19948;-83
2023/09/21 04:13:09;;;;;;;;;;;18.00;1.00;;;;;;12385979;28;19968;-85
2023/09/21 04:19:14;;;;;;;;;;;18.00;1.00;;;;;;12380500;28;20442;-84
2023/09/21 04:25:16;;;;;;;;;;;18.00;1.00;;;;;;12372847;28;20426;-82
2023/09/21 04:31:18;;;;;;;;;;;17.90;1.00;;;;;;12372310;28;19930;-83
2023/09/21 04:37:20;;;;;;;;;;;17.90;1.00;;;;;;12363189;28;19979;-84
2023/09/21 04:43:21;;;;;;;;;;;17.90;1.00;;;;;;12376259;28;20047;-82
2023/09/21 04:49:24;;;;;;;;;;;17.90;1.00;;;;;;12363426;28;19937;-83
2023/09/21 04:55:26;;;;;;;;;;;17.90;1.00;;;;;;12375409;28;20045;-85
2023/09/21 05:01:28;;;;;;;;;;;17.90;1.00;;;;;;12371635;28;19937;-85
2023/09/21 05:07:30;;;;;;;;;;;17.90;1.00;;;;;;12356802;28;19930;-85
2023/09/21 05:13:31;;;;;;;;;;;17.90;1.00;;;;;;12373924;28;19979;-86
2023/09/21 05:19:35;;;;;;;;;;;17.90;1.00;;;;;;12295054;28;20294;-84
2023/09/21 05:25:39;;;;;;;;;;;17.80;1.00;;;;;;12286335;28;19938;-85
2023/09/21 05:31:41;;;;;;;;;;;17.90;1.00;;;;;;12280021;28;20284;-83
2023/09/21 05:37:44;;;;;;;;;;;18.00;1.00;;;;;;12285772;28;19993;-85
2023/09/21 05:43:46;;;;;;;;;;;17.90;1.00;;;;;;12294180;28;19952;-84
2023/09/21 05:49:49;;;;;;;;;;;17.80;1.00;;;;;;12281199;28;20017;-83
2023/09/21 05:55:51;;;;;;;;;;;17.90;1.00;;;;;;12282529;28;20421;-84
2023/09/21 06:01:53;;;;;;;;;;;18.00;1.00;;;;;;12282591;28;20331;-85
2023/09/21 06:07:56;;;;;;;;;;;18.00;1.00;;;;;;12288006;28;19942;-83
2023/09/21 06:13:58;;;;;;;;;;;18.10;1.00;;;;;;12289973;28;20029;-85
2023/09/21 06:19:59;;;;;;;;;;;18.20;1.00;;;;;;12291191;28;19984;-86
2023/09/21 06:26:01;;;;;;;;;;;18.30;1.00;;;;;;12286449;28;20486;-84
2023/09/21 06:32:07;;;;;;;;;;;18.40;1.00;;;;;;12273387;28;19941;-85
2023/09/21 06:38:14;;;;;;;;;;;18.50;1.00;;;;;;12301556;28;19973;-85
2023/09/21 06:44:18;;;;;;;;;;;18.50;1.00;;;;;;12279967;28;20472;-84
2023/09/21 06:50:21;;;;;;;;;;;18.50;1.00;;;;;;12277586;28;19958;-83
2023/09/21 06:56:23;;;;;;;;;;;18.50;1.00;;;;;;12279526;28;19938;-85
2023/09/21 07:02:25;;;;;;;;;;;18.60;1.00;;;;;;12286989;28;20013;-84
2023/09/21 07:08:27;;;;;;;;;;;18.60;1.00;;;;;;12284607;28;20410;-84
2023/09/21 07:14:29;;;;;;;;;;;18.80;1.00;;;;;;12284631;28;20432;-85
2023/09/21 07:20:31;;;;;;;;;;;18.90;1.00;;;;;;12280349;28;20508;-84
2023/09/21 07:26:33;;;;;;;;;;;19.10;1.00;;;;;;12298554;28;19927;-83
2023/09/21 07:32:35;;;;;;;;;;;19.30;1.00;;;;;;12279729;28;20478;-82
2023/09/21 07:38:37;;;;;;;;;;;19.60;1.00;;;;;;12279960;28;19986;-82
2023/09/21 07:44:39;;;;;;;;;;;19.40;1.00;;;;;;12283949;28;19930;-85
2023/09/21 07:50:40;;;;;;;;;;;19.30;1.00;;;;;;12274986;28;20688;-83
2023/09/21 07:56:42;;;;;;;;;;;19.60;1.00;;;;;;12278182;28;19976;-82
2023/09/21 08:02:44;;;;;;;;;;;19.90;1.00;;;;;;12282272;28;19961;-85
2023/09/21 08:08:46;;;;;;;;;;;20.10;1.00;;;;;;12276756;28;19937;-83
2023/09/21 08:14:48;;;;;;;;;;;20.30;1.00;;;;;;12298754;28;19934;-83
2023/09/21 08:20:50;;;;;;;;;;;20.50;1.00;;;;;;12374375;28;20498;-82
2023/09/21 08:26:53;;;;;;;;;;;20.70;1.00;;;;;;12372230;28;19984;-83
2023/09/21 08:32:55;;;;;;;;;;;21.00;1.00;;;;;;12371670;28;20004;-82
2023/09/21 08:38:57;;;;;;;;;;;21.30;1.00;;;;;;12364442;28;19930;-83
2023/09/21 08:45:02;;;;;;;;;;;21.40;1.00;;;;;;12360392;28;19934;-83
2023/09/21 08:51:07;;;;;;;;;;;21.60;1.00;;;;;;12372302;28;20525;-83
2023/09/21 08:57:11;;;;;;;;;;;21.50;1.00;;;;;;12375292;28;19929;-83
2023/09/21 09:03:14;;;;;;;;;;;21.70;1.00;;;;;;12351368;28;19934;-84
2023/09/21 09:09:19;;;;;;;;;;;22.00;1.00;;;;;;12351485;28;19964;-85
2023/09/21 09:15:32;;;;;;;;;;;22.30;1.00;;;;;;12370750;28;19965;-84
2023/09/21 09:21:35;;;;;;;;;;;22.70;1.00;;;;;;12347344;28;19964;-84
2023/09/21 09:27:38;;;;;;;;;;;22.80;1.00;;;;;;12381699;28;19934;-82
2023/09/21 09:33:40;;;;;;;;;;;22.60;1.00;;;;;;12377285;28;19941;-83
2023/09/21 09:39:43;;;;;;;;;;;22.40;1.00;;;;;;12374570;28;19984;-83
2023/09/21 09:45:47;;;;;;;;;;;22.80;1.00;;;;;;12367344;28;20028;-83
2023/09/21 09:51:52;;;;;;;;;;;23.10;1.00;;;;;;12355871;28;20409;-82
2023/09/21 09:57:55;;;;;;;;;;;23.50;1.00;;;;;;12361088;28;19940;-84
2023/09/21 10:03:58;;;;;;;;;;;23.80;1.00;;;;;;12357790;28;19953;-83
2023/09/21 10:10:03;;;;;;;;;;;23.30;1.00;;;;;;12368759;28;19929;-83
2023/09/21 10:16:05;;;;;;;;;;;22.90;1.00;;;;;;12361801;28;19981;-83
2023/09/21 10:22:24;;;;;;;;;;;23.00;1.00;;;;;;12383464;28;19965;-82
2023/09/21 10:28:28;;;;;;;;;;;23.10;1.00;;;;;;12384626;28;19989;-83
2023/09/21 10:34:31;;;;;;;;;;;22.70;1.00;;;;;;12367650;28;19937;-83
2023/09/21 10:40:35;;;;;;;;;;;22.90;1.00;;;;;;12368057;28;20330;-85
2023/09/21 10:46:39;;;;;;;;;;;22.90;1.00;;;;;;12387070;28;20301;-83
2023/09/21 10:52:43;;;;;;;;;;;22.90;1.00;;;;;;12352826;28;20260;-86
2023/09/21 10:58:45;;;;;;;;;;;23.20;1.00;;;;;;12373433;28;19937;-86
2023/09/21 11:04:48;;;;;;;;;;;23.30;1.00;;;;;;12359888;28;19936;-85
2023/09/21 11:10:50;;;;;;;;;;;23.00;1.00;;;;;;12371973;28;20468;-85
2023/09/21 11:16:53;;;;;;;;;;;22.90;1.00;;;;;;12361704;28;20000;-85
2023/09/21 11:22:55;;;;;;;;;;;22.90;1.00;;;;;;12376795;28;20520;-86
2023/09/21 11:28:58;;;;;;;;;;;22.70;1.00;;;;;;12352710;28;19965;-84
2023/09/21 11:35:02;;;;;;;;;;;22.50;1.00;;;;;;12371566;28;19926;-85
2023/09/21 11:41:04;;;;;;;;;;;22.40;1.00;;;;;;12384912;28;20321;-86
2023/09/21 11:47:09;;;;;;;;;;;22.20;1.00;;;;;;12367589;28;19984;-86
2023/09/21 11:53:12;;;;;;;;;;;22.10;1.00;;;;;;12388104;28;19984;-84
2023/09/21 11:59:15;;;;;;;;;;;22.00;1.00;;;;;;12372587;28;19929;-86
2023/09/21 12:05:18;;;;;;;;;;;21.80;1.00;;;;;;12351186;28;19930;-84
2023/09/21 12:11:23;;;;;;;;;;;21.80;1.00;;;;;;12380453;28;19930;-84
2023/09/21 12:17:26;;;;;;;;;;;21.80;1.00;;;;;;12339479;28;19940;-85
2023/09/21 12:23:28;;;;;;;;;;;21.80;1.00;;;;;;12358980;28;19930;-85
2023/09/21 12:29:29;;;;;;;;;;;21.80;1.00;;;;;;12350501;28;19929;-84
2023/09/21 12:35:31;;;;;;;;;;;22.10;1.00;;;;;;12371538;28;19929;-84
2023/09/21 12:41:34;;;;;;;;;;;22.20;1.00;;;;;;12375937;28;19936;-87
2023/09/21 12:47:36;;;;;;;;;;;22.00;1.00;;;;;;12374451;28;20409;-85
2023/09/21 12:53:38;;;;;;;;;;;21.80;1.00;;;;;;12358872;28;20057;-84
2023/09/21 12:59:40;;;;;;;;;;;21.80;1.00;;;;;;12355587;28;20398;-85
2023/09/21 13:05:45;;;;;;;;;;;21.70;1.00;;;;;;12355268;28;20335;-85
2023/09/21 13:11:47;;;;;;;;;;;21.70;1.00;;;;;;12355123;28;20454;-85
2023/09/21 13:17:50;;;;;;;;;;;21.70;1.00;;;;;;12343353;28;20072;-84
2023/09/21 13:23:55;;;;;;;;;;;21.60;1.00;;;;;;12357271;28;19933;-82
2023/09/21 13:29:58;;;;;;;;;;;21.50;1.00;;;;;;12357211;28;20017;-81
2023/09/21 13:36:03;;;;;;;;;;;21.50;1.00;;;;;;12350422;28;19930;-83
2023/09/21 13:42:05;;;;;;;;;;;21.50;1.00;;;;;;12368525;28;20392;-82
2023/09/21 13:48:08;;;;;;;;;;;21.60;1.00;;;;;;12368752;28;19933;-84
2023/09/21 13:54:11;;;;;;;;;;;21.80;1.00;;;;;;12370075;28;19934;-82
2023/09/21 14:00:14;;;;;;;;;;;21.90;1.00;;;;;;12368750;28;19976;-83
2023/09/21 14:06:16;;;;;;;;;;;22.20;1.00;;;;;;12365680;28;19934;-82
2023/09/21 14:12:19;;;;;;;;;;;22.60;1.00;;;;;;12359593;28;19929;-83
2023/09/21 14:18:21;;;;;;;;;;;22.60;1.00;;;;;;12369660;28;19930;-83
2023/09/21 14:24:22;;;;;;;;;;;22.50;1.00;;;;;;12396291;28;19953;-83
2023/09/21 14:30:24;;;;;;;;;;;22.50;1.00;;;;;;12417547;28;19933;-84
2023/09/21 14:36:26;;;;;;;;;;;22.50;1.00;;;;;;12361810;28;20349;-85
2023/09/21 14:42:29;;;;;;;;;;;22.40;1.00;;;;;;12360982;28;19929;-84
2023/09/21 14:48:31;;;;;;;;;;;22.50;1.00;;;;;;12363809;28;20471;-85
2023/09/21 14:54:33;;;;;;;;;;;22.60;1.00;;;;;;12366444;28;19973;-85
2023/09/21 15:00:38;;;;;;;;;;;22.60;1.00;;;;;;12366305;28;20302;-84
2023/09/21 15:06:40;;;;;;;;;;;22.40;1.00;;;;;;12346449;28;19933;-84
2023/09/21 15:12:42;;;;;;;;;;;22.30;1.00;;;;;;12377365;28;19964;-83
2023/09/21 15:18:44;;;;;;;;;;;22.20;1.00;;;;;;12363559;28;19933;-85
2023/09/21 15:24:47;;;;;;;;;;;22.00;1.00;;;;;;12361314;28;19929;-84
2023/09/21 15:30:49;;;;;;;;;;;21.80;1.00;;;;;;12376111;28;19980;-83
2023/09/21 15:36:51;;;;;;;;;;;21.80;1.00;;;;;;12369429;28;19934;-84
2023/09/21 15:42:54;;;;;;;;;;;21.70;1.00;;;;;;12369092;28;19930;-82
2023/09/21 15:48:56;;;;;;;;;;;21.60;1.00;;;;;;12366055;28;19976;-84
2023/09/21 15:55:01;;;;;;;;;;;21.50;7.90;;;;;;12350737;28;19929;-85
2023/09/21 16:01:03;;;;;;;;;;;21.30;4.30;;;;;;12360689;28;19940;-85
2023/09/21 16:07:05;;;;;;;;;;;21.20;12.00;;;;;;12368972;28;19937;-85
2023/09/21 16:13:07;;;;;;;;;;;21.10;25.50;;;;;;12366050;28;19929;-85
2023/09/21 16:19:09;;;;;;;;;;;20.90;20.80;;;;;;12358109;28;19965;-86
2023/09/21 16:25:11;;;;;;;;;;;20.90;13.20;;;;;;12374921;28;19929;-86
2023/09/21 16:31:12;;;;;;;;;;;20.90;10.50;;;;;;12358619;28;19979;-87
2023/09/21 16:37:15;;;;;;;;;;;20.80;3.10;;;;;;12355574;28;19984;-85
2023/09/21 16:43:16;;;;;;;;;;;20.80;9.30;;;;;;12366836;28;19968;-86
2023/09/21 16:49:18;;;;;;;;;;;20.70;1.00;;;;;;12357490;28;19999;-85
2023/09/21 16:55:20;;;;;;;;;;;20.70;1.00;;;;;;12362347;28;19930;-82
2023/09/21 17:01:22;;;;;;;;;;;20.60;3.60;;;;;;12348630;28;20457;-83
2023/09/21 17:07:24;;;;;;;;;;;20.60;7.80;;;;;;12354685;28;19934;-83
2023/09/21 17:13:26;;;;;;;;;;;20.50;6.50;;;;;;12355969;28;19952;-83
2023/09/21 17:19:28;;;;;;;;;;;20.50;16.60;;;;;;12375793;28;19984;-83
2023/09/21 17:25:30;;;;;;;;;;;20.40;12.30;;;;;;12378270;28;20386;-83
2023/09/21 17:31:32;;;;;;;;;;;20.40;14.20;;;;;;12373798;28;19930;-84
2023/09/21 17:37:33;;;;;;;;;;;20.30;18.40;;;;;;12354664;28;20374;-83
2023/09/21 17:43:35;;;;;;;;;;;20.40;34.70;;;;;;12372756;28;20346;-83
2023/09/21 17:49:37;;;;;;;;;;;20.30;17.50;;;;;;12366212;28;19936;-83
2023/09/21 17:55:39;;;;;;;;;;;20.30;4.80;;;;;;12379204;28;20040;-83
2023/09/21 18:01:40;;;;;;;;;;;20.30;14.80;;;;;;12366654;28;20036;-86
2023/09/21 18:07:42;;;;;;;;;;;20.30;1.00;;;;;;12372161;28;19930;-86
2023/09/21 18:13:45;;;;;;;;;;;20.30;13.00;;;;;;12362593;28;19933;-85
2023/09/21 18:19:46;;;;;;;;;;;20.30;1.00;;;;;;12359393;28;19940;-85
2023/09/21 18:25:48;;;;;;;;;;;20.30;10.10;;;;;;12381303;28;20418;-84
2023/09/21 18:31:50;;;;;;;;;;;20.20;17.20;;;;;;12360377;28;19980;-86
2023/09/21 18:37:52;;;;;;;;;;;20.00;45.10;;;;;;12335373;28;20016;-85
2023/09/21 18:43:53;;;;;;;;;;;19.80;45.80;;;;;;12368174;28;19965;-86
2023/09/21 18:49:55;;;;;;;;;;;19.70;43.00;;;;;;12354409;28;19929;-86
2023/09/21 18:55:57;;;;;;;;;;;19.70;91.00;;;;;;12361592;28;19977;-86
2023/09/21 19:01:59;;;;;;;;;;;19.70;94.40;;;;;;12361805;28;19929;-85
2023/09/21 19:08:01;;;;;;;;;;;19.60;72.00;;;;;;12360113;28;19945;-86
2023/09/21 19:14:03;;;;;;;;;;;19.30;15.90;;;;;;12363573;28;19937;-84
2023/09/21 19:20:07;;;;;;;;;;;19.20;37.10;;;;;;12272357;28;20019;-84
2023/09/21 19:26:09;;;;;;;;;;;19.40;94.20;;;;;;12275327;28;19934;-84
2023/09/21 19:32:15;;;;;;;;;;;19.20;96.40;;;;;;12281305;28;20375;-84
2023/09/21 19:38:17;;;;;;;;;;;19.20;99.90;;;;;;12256757;28;19940;-84
2023/09/21 19:44:18;;;;;;;;;;;18.80;99.90;;;;;;12272248;28;19930;-83
2023/09/21 19:50:20;;;;;;;;;;;18.50;99.90;;;;;;12281104;28;20429;-83
2023/09/21 19:56:22;;;;;;;;;;;18.20;99.90;;;;;;12283405;28;19969;-83
2023/09/21 20:02:25;;;;;;;;;;;18.10;99.90;;;;;;12279606;28;19930;-82
2023/09/21 20:08:30;;;;;;;;;;;17.90;99.90;;;;;;12283573;28;20185;-83
2023/09/21 20:14:32;;;;;;;;;;;17.60;99.90;;;;;;12285235;28;19934;-82
2023/09/21 20:20:34;;;;;;;;;;;17.40;99.90;;;;;;12296766;28;19973;-81
2023/09/21 20:26:36;;;;;;;;;;;17.30;99.90;;;;;;12278544;28;19973;-83
2023/09/21 20:32:38;;;;;;;;;;;17.10;99.90;;;;;;12287423;28;19935;-84
2023/09/21 20:38:41;;;;;;;;;;;17.10;99.90;;;;;;12282245;28;19990;-82
2023/09/21 20:44:43;;;;;;;;;;;17.00;99.90;;;;;;12280823;28;19930;-83
2023/09/21 20:50:45;;;;;;;;;;;17.10;99.90;;;;;;12272668;28;19965;-83
2023/09/21 20:56:47;;;;;;;;;;;17.00;99.90;;;;;;12278365;28;19937;-84
2023/09/21 21:02:49;;;;;;;;;;;17.00;99.90;;;;;;12276771;28;20403;-83
2023/09/21 21:08:52;;;;;;;;;;;16.80;99.90;;;;;;12276838;28;19953;-83
2023/09/21 21:14:54;;;;;;;;;;;16.80;99.90;;;;;;12293492;28;19931;-81
2023/09/21 21:20:59;;;;;;;;;;;16.70;99.90;;;;;;12368450;28;19992;-82
2023/09/21 21:27:01;;;;;;;;;;;16.80;99.90;;;;;;12358443;28;19930;-83
2023/09/21 21:33:03;;;;;;;;;;;16.80;99.90;;;;;;12373648;28;19930;-83
2023/09/21 21:39:05;;;;;;;;;;;16.80;99.90;;;;;;12372925;28;19938;-80
2023/09/21 21:45:08;;;;;;;;;;;16.70;99.90;;;;;;12369582;28;20020;-85
2023/09/21 21:51:10;;;;;;;;;;;16.70;99.90;;;;;;12352297;28;19969;-84
2023/09/21 21:57:11;;;;;;;;;;;16.70;99.90;;;;;;12378548;28;19930;-82
2023/09/21 22:03:14;;;;;;;;;;;16.60;99.90;;;;;;12371367;28;19980;-84
2023/09/21 22:09:17;;;;;;;;;;;16.60;99.90;;;;;;12383388;28;20029;-84
2023/09/21 22:15:19;;;;;;;;;;;16.70;99.90;;;;;;12386153;28;20535;-85
2023/09/21 22:21:22;;;;;;;;;;;16.60;99.90;;;;;;12363533;28;19930;-83
2023/09/21 22:27:24;;;;;;;;;;;16.50;99.90;;;;;;12377224;28;20655;-83
2023/09/21 22:33:26;;;;;;;;;;;16.50;99.90;;;;;;12383669;28;20390;-83
2023/09/21 22:39:28;;;;;;;;;;;16.30;99.90;;;;;;12367196;28;19934;-82
2023/09/21 22:45:32;;;;;;;;;;;16.40;99.90;;;;;;12391198;28;19948;-82
2023/09/21 22:51:35;;;;;;;;;;;16.30;99.90;;;;;;12379330;28;19975;-82
2023/09/21 22:57:37;;;;;;;;;;;16.30;99.90;;;;;;12377005;28;20008;-83
2023/09/21 23:03:39;;;;;;;;;;;16.40;99.90;;;;;;12366941;28;19929;-83
2023/09/21 23:09:41;;;;;;;;;;;16.30;99.90;;;;;;12367772;28;19936;-82
2023/09/21 23:15:46;;;;;;;;;;;16.40;99.90;;;;;;12358693;28;19964;-83
2023/09/21 23:21:49;;;;;;;;;;;16.40;99.90;;;;;;12363465;28;19933;-83
2023/09/21 23:27:51;;;;;;;;;;;16.50;99.90;;;;;;12380324;28;19929;-82
2023/09/21 23:33:54;;;;;;;;;;;16.30;99.90;;;;;;12360268;28;20306;-82
2023/09/21 23:39:56;;;;;;;;;;;16.30;99.90;;;;;;12365647;28;19929;-83
2023/09/21 23:45:58;;;;;;;;;;;16.40;99.90;;;;;;12383349;28;20370;-82
2023/09/21 23:52:01;;;;;;;;;;;16.30;99.90;;;;;;12380326;28;19980;-82
2023/09/21 23:58:04;;;;;;;;;;;16.20;99.90;;;;;;12365560;28;19930;-83
